createdAt,value
2023-04-17T00:05:08.686Z,48
2023-04-17T00:10:27.097Z,48.7
2023-04-17T00:15:45.461Z,48.4
2023-04-17T00:21:03.879Z,48.1
2023-04-17T00:26:22.435Z,48.7
2023-04-17T00:31:41.057Z,48.3
2023-04-17T00:36:59.311Z,48.9
2023-04-17T00:42:17.661Z,49.3
2023-04-17T00:47:36.010Z,49
2023-04-17T00:52:54.204Z,48.5
2023-04-17T00:58:12.234Z,49.4
2023-04-17T01:03:31.157Z,49.3
2023-04-17T01:08:49.172Z,49.2
2023-04-17T01:14:07.636Z,48.7
2023-04-17T01:19:25.973Z,49.2
2023-04-17T01:24:44.560Z,49
2023-04-17T01:30:02.757Z,48.9
2023-04-17T01:35:20.915Z,49.6
2023-04-17T01:40:39.104Z,49
2023-04-17T01:45:57.327Z,49.8
2023-04-17T01:51:15.778Z,49.2
2023-04-17T01:56:33.908Z,49.2
2023-04-17T02:01:52.538Z,49.6
2023-04-17T02:07:10.953Z,49.7
2023-04-17T02:12:29.532Z,49.5
2023-04-17T02:17:48.017Z,49.7
2023-04-17T02:23:06.606Z,49.2
2023-04-17T02:28:25.133Z,48.8
2023-04-17T02:33:43.293Z,49.3
2023-04-17T02:39:01.869Z,49.4
2023-04-17T02:44:20.000Z,49.8
2023-04-17T02:49:38.224Z,49.5
2023-04-17T02:54:56.588Z,49.5
2023-04-17T03:00:14.980Z,50.1
2023-04-17T03:05:33.658Z,49.6
2023-04-17T03:10:51.811Z,49.4
2023-04-17T03:16:10.228Z,50.5
2023-04-17T03:21:28.995Z,49.7
2023-04-17T03:26:47.441Z,50.1
2023-04-17T03:32:06.320Z,50.1
2023-04-17T03:37:24.589Z,49.5
2023-04-17T03:42:43.175Z,49.7
2023-04-17T03:48:01.630Z,50.2
2023-04-17T03:53:20.089Z,49.5
2023-04-17T03:58:38.409Z,50
2023-04-17T04:03:57.063Z,49.5
2023-04-17T04:09:15.691Z,49.7
2023-04-17T04:14:33.823Z,50.4
2023-04-17T04:19:52.423Z,50.6
2023-04-17T04:25:10.919Z,50.6
2023-04-17T04:30:28.823Z,49.8
2023-04-17T04:35:46.999Z,50.6
2023-04-17T04:41:05.230Z,50.3
2023-04-17T04:46:23.794Z,49.7
2023-04-17T04:51:42.173Z,50.6
2023-04-17T04:57:00.413Z,50.5
2023-04-17T05:02:18.953Z,49.9
2023-04-17T05:07:37.467Z,50.1
2023-04-17T05:12:55.867Z,49.8
2023-04-17T05:18:14.366Z,50.2
2023-04-17T05:23:32.644Z,49.7
2023-04-17T05:28:50.938Z,49.5
2023-04-17T05:34:09.312Z,50.3
2023-04-17T05:39:27.684Z,50.6
2023-04-17T05:44:46.122Z,49.3
2023-04-17T05:50:04.628Z,49.6
2023-04-17T05:55:22.961Z,50.3
2023-04-17T06:00:41.611Z,50.1
2023-04-17T06:06:00.527Z,49.7
2023-04-17T06:11:18.554Z,49.6
2023-04-17T06:16:37.252Z,49.4
2023-04-17T06:21:55.951Z,50.1
2023-04-17T06:27:14.192Z,49.2
2023-04-17T06:32:33.324Z,49.4
2023-04-17T06:37:54.735Z,49.6
2023-04-17T06:43:22.493Z,49.6
2023-04-17T06:48:40.719Z,50.5
2023-04-17T06:53:59.043Z,49.7
2023-04-17T06:59:17.387Z,49.8
2023-04-17T07:04:20.386Z,50
2023-04-17T07:09:38.845Z,50
2023-04-17T07:14:57.193Z,50.3
2023-04-17T07:20:15.489Z,49.7
2023-04-17T07:25:33.871Z,49.7
2023-04-17T07:30:52.401Z,49.7
2023-04-17T07:36:10.543Z,49.8
2023-04-17T07:41:31.554Z,50.2
2023-04-17T07:46:53.412Z,50
2023-04-17T07:52:12.095Z,50.1
2023-04-17T07:57:32.997Z,49.7
2023-04-17T08:02:51.948Z,49.3
2023-04-17T08:08:10.221Z,49.2
2023-04-17T08:13:28.392Z,49.1
2023-04-17T08:18:46.925Z,49.8
2023-04-17T08:24:05.378Z,49.5
2023-04-17T08:29:24.040Z,49.1
2023-04-17T08:34:42.162Z,48.9
2023-04-17T08:40:03.327Z,49.3
2023-04-17T08:45:21.884Z,48.6
2023-04-17T08:50:40.398Z,48.6
2023-04-17T08:55:58.780Z,49
2023-04-17T09:01:17.508Z,48.7
2023-04-17T09:06:35.614Z,48.4
2023-04-17T09:11:53.989Z,48.1
2023-04-17T09:17:12.635Z,48.2
2023-04-17T09:22:31.265Z,45.2
2023-04-17T09:27:50.113Z,44.9
2023-04-17T09:33:08.071Z,44
2023-04-17T09:38:27.550Z,44.1
2023-04-17T09:43:45.906Z,45.1
2023-04-17T09:49:04.268Z,45.1
2023-04-17T09:54:22.804Z,46.3
2023-04-17T09:59:41.141Z,46.6
2023-04-17T10:04:59.916Z,46
2023-04-17T10:10:18.367Z,46.1
2023-04-17T10:15:36.852Z,46.8
2023-04-17T10:20:55.365Z,46.6
2023-04-17T10:26:14.214Z,47.1
2023-04-17T10:31:33.127Z,47.4
2023-04-17T10:36:53.953Z,46.8
2023-04-17T10:42:12.554Z,47.2
2023-04-17T10:47:31.001Z,47.1
2023-04-17T10:52:49.710Z,46.9
2023-04-17T10:58:07.901Z,43.2
2023-04-17T11:03:26.327Z,40.7
2023-04-17T11:08:44.979Z,39.8
2023-04-17T11:14:03.314Z,43.3
2023-04-17T11:19:21.786Z,44.3
2023-04-17T11:24:40.148Z,46.4
2023-04-17T11:29:58.713Z,47.9
2023-04-17T11:35:17.040Z,48.3
2023-04-17T11:40:35.847Z,48.8
2023-04-17T11:45:54.371Z,49
2023-04-17T11:51:13.018Z,49.5
2023-04-17T11:56:31.180Z,50.2
2023-04-17T12:01:49.523Z,50.3
2023-04-17T12:07:07.808Z,50.8
2023-04-17T12:12:26.344Z,50.5
2023-04-17T12:17:48.799Z,50.8
2023-04-17T12:23:07.006Z,50.7
2023-04-17T12:28:25.054Z,49.8
2023-04-17T12:33:43.548Z,50.6
2023-04-17T12:39:02.076Z,50
2023-04-17T12:44:20.394Z,46
2023-04-17T12:49:39.145Z,42.5
2023-04-17T12:54:57.744Z,39.9
2023-04-17T13:00:16.319Z,42.7
2023-04-17T13:05:34.657Z,44
2023-04-17T13:10:53.117Z,44.8
2023-04-17T13:16:11.574Z,45.5
2023-04-17T13:21:29.824Z,46.1
2023-04-17T13:26:48.203Z,47.3
2023-04-17T13:32:06.804Z,47.4
2023-04-17T13:37:26.283Z,47.2
2023-04-17T13:42:44.333Z,48.6
2023-04-17T13:48:02.525Z,50.6
2023-04-17T13:53:20.890Z,51.4
2023-04-17T13:58:39.067Z,52.6
2023-04-17T14:03:57.867Z,52.8
2023-04-17T14:09:17.436Z,52.7
2023-04-17T14:14:36.011Z,51.5
2023-04-17T14:19:53.981Z,51.7
2023-04-17T14:25:12.358Z,50.8
2023-04-17T14:30:31.098Z,51.2
2023-04-17T14:35:49.515Z,50.4
2023-04-17T14:41:08.698Z,50.1
2023-04-17T14:46:27.277Z,50.8
2023-04-17T14:51:46.434Z,50.6
2023-04-17T14:57:04.785Z,50.6
2023-04-17T15:02:23.897Z,50.7
2023-04-17T15:07:42.464Z,51.6
2023-04-17T15:13:01.029Z,51.5
2023-04-17T15:18:19.306Z,51.5
2023-04-17T15:23:37.472Z,51.6
2023-04-17T15:28:55.816Z,51.1
2023-04-17T15:34:14.102Z,51
2023-04-17T15:39:32.441Z,51.3
2023-04-17T15:44:50.636Z,52.5
2023-04-17T15:50:09.247Z,52.6
2023-04-17T15:55:27.569Z,51.9
2023-04-17T16:00:45.946Z,53.2
2023-04-17T16:05:49.229Z,53.5
2023-04-17T16:11:07.778Z,53.7
2023-04-17T16:16:26.441Z,54
2023-04-17T16:21:44.897Z,54.1
2023-04-17T16:27:08.719Z,54.6
2023-04-17T16:32:11.507Z,54.3
2023-04-17T16:37:30.149Z,54.2
2023-04-17T16:42:48.690Z,54.9
2023-04-17T16:48:07.281Z,54.6
2023-04-17T16:53:25.701Z,54.7
2023-04-17T16:58:43.885Z,55.3
2023-04-17T17:04:02.536Z,51.1
2023-04-17T17:09:21.242Z,53.3
2023-04-17T17:14:29.091Z,53.8
2023-04-17T17:19:47.610Z,53.1
2023-04-17T17:25:06.116Z,53.1
2023-04-17T17:30:24.901Z,53.5
2023-04-17T17:35:44.164Z,53.3
2023-04-17T17:41:02.521Z,52.5
2023-04-17T17:46:21.467Z,52.7
2023-04-17T17:51:40.142Z,52.1
2023-04-17T17:56:58.691Z,52.4
2023-04-17T18:02:17.089Z,52
2023-04-17T18:07:35.675Z,51.7
2023-04-17T18:12:54.255Z,51.1
2023-04-17T18:18:12.444Z,51.3
2023-04-17T18:23:31.052Z,51.9
2023-04-17T18:28:49.506Z,51.9
2023-04-17T18:34:07.963Z,51.2
2023-04-17T18:39:26.518Z,51.7
2023-04-17T18:44:44.616Z,51.9
2023-04-17T18:50:02.935Z,51.2
2023-04-17T18:55:21.301Z,52
2023-04-17T19:00:39.719Z,51.2
2023-04-17T19:05:58.128Z,51.9
2023-04-17T19:11:16.887Z,51.5
2023-04-17T19:16:35.276Z,52.1
2023-04-17T19:21:53.740Z,52.1
2023-04-17T19:27:12.069Z,51.3
2023-04-17T19:32:32.866Z,51.2
2023-04-17T19:37:50.804Z,51.5
2023-04-17T19:43:09.150Z,51.3
2023-04-17T19:48:27.346Z,51.5
2023-04-17T19:53:45.543Z,51.9
2023-04-17T19:59:03.780Z,51.4
2023-04-17T20:04:22.891Z,52.1
2023-04-17T20:09:41.340Z,51.3
2023-04-17T20:14:59.480Z,51.6
2023-04-17T20:20:18.082Z,52.5
2023-04-17T20:25:36.267Z,51.9
2023-04-17T20:30:54.848Z,51.6
2023-04-17T20:36:13.080Z,52.3
2023-04-17T20:41:31.850Z,52.3
2023-04-17T20:46:50.294Z,51.3
2023-04-17T20:52:08.671Z,52.1
2023-04-17T20:57:26.892Z,51.3
2023-04-17T21:02:45.056Z,52.2
2023-04-17T21:08:03.179Z,51.3
2023-04-17T21:13:21.593Z,52.1
2023-04-17T21:18:40.085Z,52
2023-04-17T21:23:58.499Z,51.8
2023-04-17T21:29:17.049Z,51.3
2023-04-17T21:34:35.403Z,51.9
2023-04-17T21:39:53.627Z,51.6
2023-04-17T21:45:11.994Z,51.5
2023-04-17T21:50:30.376Z,51
2023-04-17T21:55:48.835Z,51.3
2023-04-17T22:01:07.245Z,51.2
2023-04-17T22:06:25.642Z,51.9
2023-04-17T22:11:43.981Z,51.3
2023-04-17T22:17:02.374Z,52
2023-04-17T22:22:20.816Z,52.1
2023-04-17T22:27:39.287Z,52.2
2023-04-17T22:32:57.687Z,52.3
2023-04-17T22:38:15.972Z,51.6
2023-04-17T22:43:34.269Z,51.7
2023-04-17T22:48:52.824Z,51.6
2023-04-17T22:54:23.670Z,51.7
2023-04-17T22:59:41.852Z,52.6
2023-04-17T23:05:00.053Z,52.4
2023-04-17T23:10:18.005Z,52.2
2023-04-17T23:15:36.277Z,51.4
2023-04-17T23:20:54.653Z,51.5
2023-04-17T23:26:15.631Z,51.6
2023-04-17T23:31:34.500Z,51.5
2023-04-17T23:36:52.930Z,52.2
2023-04-17T23:42:11.250Z,52.6
2023-04-17T23:47:29.288Z,52.7
2023-04-17T23:52:47.356Z,51.8
2023-04-17T23:58:05.960Z,52.6
